Time;durP1;ratioP1;P1;durP2;ratioP2;P2;SDS_P1;SDS_P2;PMS_P1;PMS_P2;Temp;Humidity;BMP_temperature;BMP_pressure;BME280_temperature;BME280_humidity;BME280_pressure;Samples;Min_cycle;Max_cycle;Signal;HPM_P1;HPM_P2
2023/06/06 00:00:28;;;;;;;;;;;22.40;51.10;;;;;;5069761;28;20358;-78
2023/06/06 00:02:56;;;;;;;;;;;22.40;51.10;;;;;;5061789;28;19986;-78
2023/06/06 00:05:25;;;;;;;;;;;22.30;51.20;;;;;;5062000;28;19928;-78
2023/06/06 00:07:52;;;;;;;;;;;22.30;51.40;;;;;;5051432;28;19928;-79
2023/06/06 00:10:19;;;;;;;;;;;22.30;51.60;;;;;;5054054;28;19932;-78
2023/06/06 00:12:46;;;;;;;;;;;22.20;51.50;;;;;;5055301;28;19944;-78
2023/06/06 00:15:15;;;;;;;;;;;22.20;51.60;;;;;;5055081;28;20009;-78
2023/06/06 00:17:42;;;;;;;;;;;22.20;51.80;;;;;;5054824;28;19929;-78
2023/06/06 00:20:10;;;;;;;;;;;22.10;51.90;;;;;;5057373;28;19928;-78
2023/06/06 00:22:36;;;;;;;;;;;22.10;52.20;;;;;;5055168;28;20480;-77
2023/06/06 00:25:04;;;;;;;;;;;22.00;52.20;;;;;;5057704;28;19928;-78
2023/06/06 00:27:30;;;;;;;;;;;22.00;52.30;;;;;;5057745;28;19928;-79
2023/06/06 00:29:57;;;;;;;;;;;22.00;52.40;;;;;;5052606;28;19928;-78
2023/06/06 00:32:25;;;;;;;;;;;21.90;52.40;;;;;;5054093;28;20665;-79
2023/06/06 00:34:51;;;;;;;;;;;21.90;52.60;;;;;;5048907;28;19974;-78
2023/06/06 00:37:18;;;;;;;;;;;21.90;52.70;;;;;;5058768;28;20368;-78
2023/06/06 00:39:44;;;;;;;;;;;21.90;52.80;;;;;;5056622;28;20465;-78
2023/06/06 00:42:11;;;;;;;;;;;21.80;52.90;;;;;;5054713;28;19936;-78
2023/06/06 00:44:37;;;;;;;;;;;21.80;53.00;;;;;;5050761;28;19935;-78
2023/06/06 00:47:04;;;;;;;;;;;21.80;53.30;;;;;;5059804;28;19982;-78
2023/06/06 00:49:32;;;;;;;;;;;21.70;53.50;;;;;;5058725;28;19928;-79
2023/06/06 00:51:59;;;;;;;;;;;21.70;53.80;;;;;;5046024;28;19982;-78
2023/06/06 00:54:25;;;;;;;;;;;21.70;53.90;;;;;;5050838;28;19932;-78
2023/06/06 00:56:52;;;;;;;;;;;21.60;54.00;;;;;;5055307;28;19933;-77
2023/06/06 00:59:20;;;;;;;;;;;21.60;54.00;;;;;;5051866;28;19928;-78
2023/06/06 01:01:48;;;;;;;;;;;21.60;54.10;;;;;;5045462;28;20793;-78
2023/06/06 01:04:17;;;;;;;;;;;21.50;54.20;;;;;;5049656;28;19935;-78
2023/06/06 01:06:45;;;;;;;;;;;21.50;54.50;;;;;;5051933;28;19925;-78
2023/06/06 01:09:12;;;;;;;;;;;21.50;54.50;;;;;;5048464;28;20040;-77
2023/06/06 01:11:45;;;;;;;;;;;21.40;54.50;;;;;;5052726;28;19967;-78
2023/06/06 01:14:14;;;;;;;;;;;21.40;55.10;;;;;;5054942;28;19932;-77
2023/06/06 01:16:41;;;;;;;;;;;21.40;54.60;;;;;;5057919;28;19933;-78
2023/06/06 01:19:09;;;;;;;;;;;21.40;54.90;;;;;;5053841;28;20395;-78
2023/06/06 01:21:41;;;;;;;;;;;21.30;54.90;;;;;;5053548;28;20402;-78
2023/06/06 01:24:08;;;;;;;;;;;21.30;55.00;;;;;;5057527;28;19951;-77
2023/06/06 01:26:35;;;;;;;;;;;21.30;55.20;;;;;;5053047;28;19924;-78
2023/06/06 01:29:01;;;;;;;;;;;21.20;55.20;;;;;;5055547;28;19933;-78
2023/06/06 01:31:33;;;;;;;;;;;21.20;55.30;;;;;;5054111;28;20016;-78
2023/06/06 01:34:01;;;;;;;;;;;21.20;55.30;;;;;;5054603;28;19936;-78
2023/06/06 01:36:30;;;;;;;;;;;21.20;55.40;;;;;;5061948;28;19962;-78
2023/06/06 01:39:00;;;;;;;;;;;21.10;55.40;;;;;;5055053;28;19998;-79
2023/06/06 01:41:28;;;;;;;;;;;21.10;55.60;;;;;;5053150;28;20397;-77
2023/06/06 01:43:56;;;;;;;;;;;21.10;55.80;;;;;;5050736;28;19932;-78
2023/06/06 01:46:24;;;;;;;;;;;21.00;55.80;;;;;;5056962;28;19939;-78
2023/06/06 01:48:51;;;;;;;;;;;21.00;55.90;;;;;;5051969;28;19932;-78
2023/06/06 01:51:17;;;;;;;;;;;20.90;56.00;;;;;;5052579;28;21320;-78
2023/06/06 01:53:44;;;;;;;;;;;20.90;56.10;;;;;;5048741;28;20527;-78
2023/06/06 01:56:13;;;;;;;;;;;20.90;56.30;;;;;;5050393;28;19935;-78
2023/06/06 01:58:40;;;;;;;;;;;20.90;56.90;;;;;;5051061;28;19925;-78
2023/06/06 02:01:08;;;;;;;;;;;20.80;56.40;;;;;;5048904;28;19951;-78
2023/06/06 02:03:35;;;;;;;;;;;20.80;56.50;;;;;;5048827;28;19935;-78
2023/06/06 02:06:02;;;;;;;;;;;20.80;56.60;;;;;;5051990;28;19928;-78
2023/06/06 02:08:29;;;;;;;;;;;20.70;56.60;;;;;;5049626;28;20545;-77
2023/06/06 02:10:56;;;;;;;;;;;20.70;56.60;;;;;;5055949;28;19982;-78
2023/06/06 02:13:25;;;;;;;;;;;20.70;56.70;;;;;;5051630;28;19939;-78
2023/06/06 02:15:51;;;;;;;;;;;20.60;57.30;;;;;;5061246;28;20228;-78
2023/06/06 02:18:18;;;;;;;;;;;20.60;56.80;;;;;;5052863;28;20357;-77
2023/06/06 02:20:44;;;;;;;;;;;20.60;56.90;;;;;;5056108;28;19937;-78
2023/06/06 02:23:11;;;;;;;;;;;20.60;56.90;;;;;;5060467;28;19936;-77
2023/06/06 02:25:38;;;;;;;;;;;20.60;56.90;;;;;;5056274;28;19953;-78
2023/06/06 02:28:04;;;;;;;;;;;20.50;56.90;;;;;;5059931;28;19928;-77
2023/06/06 02:30:32;;;;;;;;;;;20.50;57.00;;;;;;5054917;28;19990;-78
2023/06/06 02:32:59;;;;;;;;;;;20.50;57.00;;;;;;5058415;28;19932;-78
2023/06/06 02:35:25;;;;;;;;;;;20.40;57.00;;;;;;5048811;28;20345;-78
2023/06/06 02:37:52;;;;;;;;;;;20.40;57.00;;;;;;5051687;28;19929;-77
2023/06/06 02:40:19;;;;;;;;;;;20.40;57.10;;;;;;5050664;28;19928;-78
2023/06/06 02:42:46;;;;;;;;;;;20.30;57.10;;;;;;5060282;28;19932;-78
2023/06/06 02:45:12;;;;;;;;;;;20.30;57.10;;;;;;5058459;28;19998;-77
2023/06/06 02:47:41;;;;;;;;;;;20.30;57.20;;;;;;5055849;28;20575;-79
2023/06/06 02:50:08;;;;;;;;;;;20.30;57.20;;;;;;5049942;28;19928;-78
2023/06/06 02:52:35;;;;;;;;;;;20.20;57.20;;;;;;5053854;28;19936;-78
2023/06/06 02:55:02;;;;;;;;;;;20.20;57.30;;;;;;5056165;28;19935;-78
2023/06/06 02:57:28;;;;;;;;;;;20.20;57.50;;;;;;5052083;28;19940;-78
2023/06/06 02:59:55;;;;;;;;;;;20.10;57.40;;;;;;5055037;28;20631;-77
2023/06/06 03:02:21;;;;;;;;;;;20.10;57.50;;;;;;5056297;28;19963;-78
2023/06/06 03:04:49;;;;;;;;;;;20.00;57.40;;;;;;5051093;28;20017;-78
2023/06/06 03:07:16;;;;;;;;;;;20.00;57.40;;;;;;5055238;28;20413;-78
2023/06/06 03:09:43;;;;;;;;;;;20.00;57.40;;;;;;5051703;28;19936;-78
2023/06/06 03:12:11;;;;;;;;;;;20.00;57.50;;;;;;5055793;28;19932;-78
2023/06/06 03:14:37;;;;;;;;;;;20.00;57.70;;;;;;5053898;28;19933;-77
2023/06/06 03:17:04;;;;;;;;;;;19.90;57.60;;;;;;5055150;28;19981;-78
2023/06/06 03:19:32;;;;;;;;;;;19.90;57.80;;;;;;5053313;28;19988;-78
2023/06/06 03:22:00;;;;;;;;;;;19.90;58.30;;;;;;5059273;28;20279;-77
2023/06/06 03:24:28;;;;;;;;;;;19.80;57.80;;;;;;5051284;28;20399;-77
2023/06/06 03:26:55;;;;;;;;;;;19.80;57.80;;;;;;5059059;28;19963;-78
2023/06/06 03:29:22;;;;;;;;;;;19.80;57.80;;;;;;5055750;28;19935;-77
2023/06/06 03:31:49;;;;;;;;;;;19.70;57.90;;;;;;5061521;28;19928;-78
2023/06/06 03:34:16;;;;;;;;;;;19.70;57.90;;;;;;5064244;28;20574;-75
2023/06/06 03:36:42;;;;;;;;;;;19.70;57.80;;;;;;5068530;28;19989;-78
2023/06/06 03:39:10;;;;;;;;;;;19.60;57.80;;;;;;5063858;28;19974;-78
2023/06/06 03:41:37;;;;;;;;;;;19.60;57.90;;;;;;5066524;28;19935;-78
2023/06/06 03:44:03;;;;;;;;;;;19.60;58.00;;;;;;5057025;28;20650;-78
2023/06/06 03:46:30;;;;;;;;;;;19.60;58.60;;;;;;5064499;28;19955;-77
2023/06/06 03:48:57;;;;;;;;;;;19.60;58.10;;;;;;5057015;28;20322;-78
2023/06/06 03:51:23;;;;;;;;;;;19.60;58.00;;;;;;5059951;28;20451;-78
2023/06/06 03:53:50;;;;;;;;;;;19.50;58.10;;;;;;5056911;28;19933;-77
2023/06/06 03:56:18;;;;;;;;;;;19.50;58.10;;;;;;5059272;28;19928;-77
2023/06/06 03:58:46;;;;;;;;;;;19.40;58.10;;;;;;5066867;28;19928;-78
2023/06/06 04:01:14;;;;;;;;;;;19.40;58.10;;;;;;5058373;28;19928;-77
2023/06/06 04:03:42;;;;;;;;;;;19.40;58.20;;;;;;5050543;28;19962;-78
2023/06/06 04:06:08;;;;;;;;;;;19.40;58.30;;;;;;5055141;28;19936;-78
2023/06/06 04:08:35;;;;;;;;;;;19.40;58.30;;;;;;5060963;28;19928;-78
2023/06/06 04:11:01;;;;;;;;;;;19.30;58.40;;;;;;5060151;28;20388;-78
2023/06/06 04:13:29;;;;;;;;;;;19.30;58.40;;;;;;5050797;28;19932;-77
2023/06/06 04:15:56;;;;;;;;;;;19.30;58.50;;;;;;5067563;28;19936;-78
2023/06/06 04:18:22;;;;;;;;;;;19.30;58.50;;;;;;5061846;28;19929;-77
2023/06/06 04:20:52;;;;;;;;;;;19.30;58.50;;;;;;5058034;28;19928;-79
2023/06/06 04:23:19;;;;;;;;;;;19.20;58.50;;;;;;5053702;28;20523;-77
2023/06/06 04:25:45;;;;;;;;;;;19.20;58.60;;;;;;5061166;28;19974;-77
2023/06/06 04:28:17;;;;;;;;;;;19.20;58.60;;;;;;5062914;28;19942;-77
2023/06/06 04:30:46;;;;;;;;;;;19.20;58.70;;;;;;5055355;28;19968;-78
2023/06/06 04:33:14;;;;;;;;;;;19.20;58.70;;;;;;5063887;28;19932;-77
2023/06/06 04:35:42;;;;;;;;;;;19.10;58.80;;;;;;5055545;28;19982;-78
2023/06/06 04:38:10;;;;;;;;;;;19.10;58.90;;;;;;5058245;28;19929;-78
2023/06/06 04:40:39;;;;;;;;;;;19.10;59.00;;;;;;5055764;28;19928;-77
2023/06/06 04:43:07;;;;;;;;;;;19.10;59.10;;;;;;5052951;28;19935;-77
2023/06/06 04:45:34;;;;;;;;;;;19.00;59.10;;;;;;5056164;28;19944;-77
2023/06/06 04:48:02;;;;;;;;;;;19.00;59.10;;;;;;5055587;28;19994;-78
2023/06/06 04:50:29;;;;;;;;;;;19.00;59.20;;;;;;5054721;28;20412;-78
2023/06/06 04:52:56;;;;;;;;;;;19.00;59.30;;;;;;5063224;28;19929;-77
2023/06/06 04:55:24;;;;;;;;;;;19.00;59.30;;;;;;5058607;28;19937;-78
2023/06/06 04:57:50;;;;;;;;;;;19.00;59.40;;;;;;5060361;28;19938;-79
2023/06/06 05:00:17;;;;;;;;;;;19.00;59.50;;;;;;5055728;28;19933;-78
2023/06/06 05:02:43;;;;;;;;;;;18.90;59.40;;;;;;5050392;28;19952;-78
2023/06/06 05:05:11;;;;;;;;;;;19.00;59.60;;;;;;5057975;28;20353;-78
2023/06/06 05:07:38;;;;;;;;;;;18.90;59.50;;;;;;5057358;28;19929;-77
2023/06/06 05:10:05;;;;;;;;;;;18.90;59.60;;;;;;5055234;28;20006;-78
2023/06/06 05:12:32;;;;;;;;;;;18.90;59.60;;;;;;5063959;28;19929;-78
2023/06/06 05:14:59;;;;;;;;;;;18.90;59.60;;;;;;5047442;28;19929;-78
2023/06/06 05:17:27;;;;;;;;;;;18.90;59.60;;;;;;5057637;28;20479;-79
2023/06/06 05:19:54;;;;;;;;;;;18.90;59.60;;;;;;5049368;28;19929;-78
2023/06/06 05:22:22;;;;;;;;;;;18.90;59.70;;;;;;5056525;28;19935;-78
2023/06/06 05:24:49;;;;;;;;;;;18.80;59.70;;;;;;5052772;28;19951;-78
2023/06/06 05:27:15;;;;;;;;;;;18.80;59.70;;;;;;5050316;28;20692;-77
2023/06/06 05:29:42;;;;;;;;;;;18.80;59.80;;;;;;5051799;28;19986;-77
2023/06/06 05:32:09;;;;;;;;;;;18.80;59.80;;;;;;5055005;28;19935;-78
2023/06/06 05:34:36;;;;;;;;;;;18.80;59.80;;;;;;5048819;28;19928;-77
2023/06/06 05:37:02;;;;;;;;;;;18.80;59.70;;;;;;5054242;28;19939;-77
2023/06/06 05:39:30;;;;;;;;;;;18.80;59.70;;;;;;5061230;28;19925;-78
2023/06/06 05:41:57;;;;;;;;;;;18.80;59.80;;;;;;5054847;28;19928;-77
2023/06/06 05:44:23;;;;;;;;;;;18.80;59.90;;;;;;5065818;28;19941;-77
2023/06/06 05:46:54;;;;;;;;;;;18.80;59.90;;;;;;5059038;28;19929;-77
2023/06/06 05:49:21;;;;;;;;;;;18.80;59.90;;;;;;5060797;28;20015;-77
2023/06/06 05:51:48;;;;;;;;;;;18.80;59.80;;;;;;5064452;28;19932;-78
2023/06/06 05:54:14;;;;;;;;;;;18.80;59.90;;;;;;5065087;28;20707;-78
2023/06/06 05:56:42;;;;;;;;;;;18.80;59.90;;;;;;5062984;28;19932;-77
2023/06/06 05:59:09;;;;;;;;;;;18.80;59.90;;;;;;5056102;28;19936;-77
2023/06/06 06:01:36;;;;;;;;;;;18.80;59.90;;;;;;5062436;28;19928;-78
2023/06/06 06:04:03;;;;;;;;;;;18.80;59.90;;;;;;5070757;28;19928;-77
2023/06/06 06:06:31;;;;;;;;;;;18.90;59.90;;;;;;5054859;28;20387;-77
2023/06/06 06:09:01;;;;;;;;;;;18.90;59.80;;;;;;5060275;28;19929;-77
2023/06/06 06:11:27;;;;;;;;;;;18.90;59.90;;;;;;5069219;28;20007;-78
2023/06/06 06:13:55;;;;;;;;;;;18.90;59.90;;;;;;5054030;28;19929;-78
2023/06/06 06:16:22;;;;;;;;;;;18.90;59.80;;;;;;5063261;28;19928;-77
2023/06/06 06:18:48;;;;;;;;;;;18.90;59.80;;;;;;5058069;28;19929;-78
2023/06/06 06:21:15;;;;;;;;;;;18.90;59.80;;;;;;5053260;28;19986;-77
2023/06/06 06:23:41;;;;;;;;;;;18.90;59.90;;;;;;5052895;28;20010;-77
2023/06/06 06:26:08;;;;;;;;;;;18.90;60.40;;;;;;5059682;28;20352;-78
2023/06/06 06:28:35;;;;;;;;;;;18.90;60.30;;;;;;5053154;28;20675;-79
2023/06/06 06:31:03;;;;;;;;;;;18.90;60.40;;;;;;5050877;28;20050;-77
2023/06/06 06:33:33;;;;;;;;;;;19.00;60.60;;;;;;5052658;28;19964;-77
2023/06/06 06:36:00;;;;;;;;;;;19.00;60.50;;;;;;5052235;28;19929;-78
2023/06/06 06:38:26;;;;;;;;;;;19.00;60.50;;;;;;5051721;28;19944;-77
2023/06/06 06:40:53;;;;;;;;;;;19.00;60.70;;;;;;5047547;28;19994;-77
2023/06/06 06:43:20;;;;;;;;;;;19.00;60.70;;;;;;5054519;28;19928;-77
2023/06/06 06:45:46;;;;;;;;;;;19.00;60.70;;;;;;5055229;28;19929;-77
2023/06/06 06:48:14;;;;;;;;;;;19.00;60.60;;;;;;5060338;28;19988;-77
2023/06/06 06:50:41;;;;;;;;;;;19.00;60.60;;;;;;5060302;28;19932;-78
2023/06/06 06:53:09;;;;;;;;;;;19.00;60.70;;;;;;5047194;28;19929;-77
2023/06/06 06:55:38;;;;;;;;;;;19.10;61.00;;;;;;5048547;28;19956;-77
2023/06/06 06:58:05;;;;;;;;;;;19.00;61.00;;;;;;5052230;28;19932;-77
2023/06/06 07:00:33;;;;;;;;;;;19.10;61.20;;;;;;5048992;28;19928;-77
2023/06/06 07:03:03;;;;;;;;;;;19.20;61.60;;;;;;5049368;28;20513;-77
2023/06/06 07:05:32;;;;;;;;;;;19.10;61.40;;;;;;5055063;28;20047;-77
2023/06/06 07:07:59;;;;;;;;;;;19.10;61.30;;;;;;5055947;28;19936;-77
2023/06/06 07:10:28;;;;;;;;;;;19.20;61.50;;;;;;5055032;28;20387;-78
2023/06/06 07:12:55;;;;;;;;;;;19.20;61.50;;;;;;5050494;28;19933;-77
2023/06/06 07:15:21;;;;;;;;;;;19.20;61.50;;;;;;5053038;28;20677;-77
2023/06/06 07:17:49;;;;;;;;;;;19.20;61.60;;;;;;5050714;28;20386;-77
2023/06/06 07:20:18;;;;;;;;;;;19.20;61.70;;;;;;5053311;28;20535;-77
2023/06/06 07:22:46;;;;;;;;;;;19.20;62.10;;;;;;5054444;28;19939;-77
2023/06/06 07:25:13;;;;;;;;;;;19.30;61.50;;;;;;5051229;28;19935;-77
2023/06/06 07:27:41;;;;;;;;;;;19.30;61.50;;;;;;5051781;28;19963;-77
2023/06/06 07:30:12;;;;;;;;;;;19.30;61.50;;;;;;5052940;28;19968;-77
2023/06/06 07:32:39;;;;;;;;;;;19.30;61.50;;;;;;5053506;28;19929;-77
2023/06/06 07:35:06;;;;;;;;;;;19.40;61.50;;;;;;5054218;28;19933;-77
2023/06/06 07:37:32;;;;;;;;;;;19.30;61.30;;;;;;5054679;28;19934;-77
2023/06/06 07:40:00;;;;;;;;;;;19.40;61.10;;;;;;5054557;28;19929;-77
2023/06/06 07:42:26;;;;;;;;;;;19.40;61.10;;;;;;5054797;28;19999;-78
2023/06/06 07:44:55;;;;;;;;;;;19.40;61.00;;;;;;5057079;28;19936;-78
2023/06/06 07:47:22;;;;;;;;;;;19.40;60.90;;;;;;5056793;28;19944;-78
2023/06/06 07:49:50;;;;;;;;;;;19.50;60.80;;;;;;5056418;28;19935;-78
2023/06/06 07:52:16;;;;;;;;;;;19.50;60.90;;;;;;5053017;28;19929;-77
2023/06/06 07:54:43;;;;;;;;;;;19.50;60.60;;;;;;5053773;28;19928;-77
2023/06/06 07:57:16;;;;;;;;;;;19.50;60.60;;;;;;5049334;28;20013;-78
2023/06/06 07:59:42;;;;;;;;;;;19.60;60.60;;;;;;5050072;28;19929;-77
2023/06/06 08:02:09;;;;;;;;;;;19.60;60.60;;;;;;5048962;28;19936;-77
2023/06/06 08:04:35;;;;;;;;;;;19.60;60.60;;;;;;5054517;28;20010;-77
2023/06/06 08:07:03;;;;;;;;;;;19.60;60.60;;;;;;5054574;28;19928;-77
2023/06/06 08:09:30;;;;;;;;;;;19.70;60.50;;;;;;5048071;28;19940;-77
2023/06/06 08:11:57;;;;;;;;;;;19.70;60.20;;;;;;5050027;28;20029;-77
2023/06/06 08:14:25;;;;;;;;;;;19.70;60.10;;;;;;5054019;28;19986;-78
2023/06/06 08:16:51;;;;;;;;;;;19.80;60.20;;;;;;5048922;28;19933;-77
2023/06/06 08:19:18;;;;;;;;;;;19.80;60.20;;;;;;5052904;28;19932;-78
2023/06/06 08:21:45;;;;;;;;;;;19.80;60.00;;;;;;5055234;28;19932;-77
2023/06/06 08:24:11;;;;;;;;;;;19.90;59.70;;;;;;5056543;28;20882;-78
2023/06/06 08:26:38;;;;;;;;;;;19.90;59.60;;;;;;5050735;28;19937;-79
2023/06/06 08:29:04;;;;;;;;;;;19.90;59.50;;;;;;5055104;28;19935;-77
2023/06/06 08:31:32;;;;;;;;;;;20.00;59.50;;;;;;5054247;28;20322;-77
2023/06/06 08:33:59;;;;;;;;;;;20.00;59.40;;;;;;5043210;28;20699;-77
2023/06/06 08:36:25;;;;;;;;;;;20.00;59.30;;;;;;5052651;28;19932;-78
2023/06/06 08:38:52;;;;;;;;;;;20.10;59.40;;;;;;5050324;28;20241;-79
2023/06/06 08:41:19;;;;;;;;;;;20.10;59.10;;;;;;5055314;28;20041;-78
2023/06/06 08:43:47;;;;;;;;;;;20.10;58.90;;;;;;5047805;28;19936;-79
2023/06/06 08:46:15;;;;;;;;;;;20.10;58.60;;;;;;5051492;28;19974;-78
2023/06/06 08:48:44;;;;;;;;;;;20.20;58.50;;;;;;5054921;28;19982;-78
2023/06/06 08:51:12;;;;;;;;;;;20.20;58.20;;;;;;5052379;28;19936;-77
2023/06/06 08:53:39;;;;;;;;;;;20.30;58.10;;;;;;5048042;28;19928;-77
2023/06/06 08:56:07;;;;;;;;;;;20.30;57.90;;;;;;5059164;28;19932;-78
2023/06/06 08:58:35;;;;;;;;;;;20.30;57.80;;;;;;5055062;28;19989;-78
2023/06/06 09:01:02;;;;;;;;;;;20.30;57.50;;;;;;5046810;28;19939;-79
2023/06/06 09:03:31;;;;;;;;;;;20.40;57.10;;;;;;5057488;28;19939;-78
2023/06/06 09:05:59;;;;;;;;;;;20.40;57.40;;;;;;5053618;28;19951;-78
2023/06/06 09:08:26;;;;;;;;;;;20.50;56.90;;;;;;5053768;28;19946;-78
2023/06/06 09:10:52;;;;;;;;;;;20.50;56.80;;;;;;5056875;28;20384;-78
2023/06/06 09:13:19;;;;;;;;;;;20.50;56.60;;;;;;5052639;28;20005;-78
2023/06/06 09:15:46;;;;;;;;;;;20.60;56.40;;;;;;5052287;28;19936;-79
2023/06/06 09:18:14;;;;;;;;;;;20.60;56.30;;;;;;5047915;28;19928;-78
2023/06/06 09:20:42;;;;;;;;;;;20.70;56.10;;;;;;5042057;28;20204;-78
2023/06/06 09:23:13;;;;;;;;;;;20.70;55.90;;;;;;5049727;28;19929;-78
2023/06/06 09:25:43;;;;;;;;;;;20.80;55.70;;;;;;5050231;28;20023;-78
2023/06/06 09:28:10;;;;;;;;;;;20.80;55.40;;;;;;5046843;28;19929;-77
2023/06/06 09:30:37;;;;;;;;;;;20.80;55.20;;;;;;5044373;28;19935;-78
2023/06/06 09:33:05;;;;;;;;;;;20.90;55.10;;;;;;5045021;28;19929;-78
2023/06/06 09:35:31;;;;;;;;;;;21.00;55.10;;;;;;5052850;28;19998;-78
2023/06/06 09:37:58;;;;;;;;;;;21.00;54.90;;;;;;5050738;28;19951;-78
2023/06/06 09:40:27;;;;;;;;;;;21.10;54.80;;;;;;5051523;28;19929;-78
2023/06/06 09:42:53;;;;;;;;;;;21.10;54.50;;;;;;5051425;28;19932;-78
2023/06/06 09:45:20;;;;;;;;;;;21.20;54.50;;;;;;5049373;28;19991;-81
2023/06/06 09:47:48;;;;;;;;;;;21.20;54.30;;;;;;5048603;28;19970;-78
2023/06/06 09:50:15;;;;;;;;;;;21.30;54.10;;;;;;5051101;28;19932;-79
2023/06/06 09:52:42;;;;;;;;;;;21.30;53.90;;;;;;5051026;28;19928;-78
2023/06/06 09:55:09;;;;;;;;;;;21.40;53.70;;;;;;5050333;28;19928;-78
2023/06/06 09:57:38;;;;;;;;;;;21.50;53.60;;;;;;5048989;28;19986;-79
2023/06/06 10:00:10;;;;;;;;;;;21.50;53.40;;;;;;5046529;28;20331;-78
2023/06/06 10:02:41;;;;;;;;;;;21.60;53.40;;;;;;5054698;28;19928;-77
2023/06/06 10:05:09;;;;;;;;;;;21.70;53.20;;;;;;5049237;28;19944;-79
2023/06/06 10:07:36;;;;;;;;;;;21.70;53.10;;;;;;5047080;28;19968;-78
2023/06/06 10:10:02;;;;;;;;;;;21.80;53.00;;;;;;5046135;28;19952;-78
2023/06/06 10:12:30;;;;;;;;;;;21.90;53.20;;;;;;5047427;28;19925;-80
2023/06/06 10:14:58;;;;;;;;;;;22.00;53.10;;;;;;5045827;28;19932;-77
2023/06/06 10:17:25;;;;;;;;;;;22.00;53.00;;;;;;5049568;28;19940;-80
2023/06/06 10:19:53;;;;;;;;;;;22.10;53.10;;;;;;5051680;28;19928;-78
2023/06/06 10:22:19;;;;;;;;;;;22.20;52.90;;;;;;5054045;28;19928;-78
2023/06/06 10:24:46;;;;;;;;;;;22.20;52.80;;;;;;5053748;28;20413;-78
2023/06/06 10:27:18;;;;;;;;;;;22.30;52.80;;;;;;5051665;28;19932;-78
2023/06/06 10:29:48;;;;;;;;;;;22.40;52.70;;;;;;5046236;28;19932;-78
2023/06/06 10:32:18;;;;;;;;;;;22.50;52.50;;;;;;5049991;28;19925;-78
2023/06/06 10:34:47;;;;;;;;;;;22.50;52.20;;;;;;5053056;28;20308;-78
2023/06/06 10:37:15;;;;;;;;;;;22.60;52.20;;;;;;5051526;28;20429;-78
2023/06/06 10:39:45;;;;;;;;;;;22.70;52.10;;;;;;5053052;28;20559;-78
2023/06/06 10:42:12;;;;;;;;;;;22.70;52.00;;;;;;5062102;28;19928;-78
2023/06/06 10:44:42;;;;;;;;;;;22.80;51.90;;;;;;5055229;28;19928;-77
2023/06/06 10:47:30;;;;;;;;;;;22.90;51.70;;;;;;5049291;28;19929;-78
2023/06/06 10:50:24;;;;;;;;;;;22.90;51.50;;;;;;5051582;28;19928;-77
2023/06/06 10:52:51;;;;;;;;;;;23.00;51.30;;;;;;5019768;28;19928;-78
2023/06/06 10:55:18;;;;;;;;;;;23.10;51.30;;;;;;5054460;28;20063;-77
2023/06/06 10:57:52;;;;;;;;;;;23.20;51.20;;;;;;5047280;28;19950;-80
2023/06/06 11:00:18;;;;;;;;;;;23.30;50.40;;;;;;5054781;28;19982;-77
2023/06/06 11:02:47;;;;;;;;;;;23.30;50.50;;;;;;5046505;28;20476;-79
2023/06/06 11:05:13;;;;;;;;;;;23.40;50.50;;;;;;5047829;28;19929;-77
2023/06/06 11:07:41;;;;;;;;;;;23.50;50.40;;;;;;5050586;28;19933;-77
2023/06/06 11:10:08;;;;;;;;;;;23.50;49.80;;;;;;5051448;28;19932;-77
2023/06/06 11:12:34;;;;;;;;;;;23.60;49.70;;;;;;5048865;28;19925;-78
2023/06/06 11:15:03;;;;;;;;;;;23.60;49.60;;;;;;5049273;28;19939;-77
2023/06/06 11:17:42;;;;;;;;;;;23.80;49.80;;;;;;5049379;28;19931;-77
2023/06/06 11:20:16;;;;;;;;;;;23.80;49.80;;;;;;5055280;28;19935;-77
2023/06/06 11:22:49;;;;;;;;;;;23.80;49.70;;;;;;5053435;28;19928;-78
2023/06/06 11:25:20;;;;;;;;;;;23.90;49.50;;;;;;5049128;28;19936;-77
2023/06/06 11:27:47;;;;;;;;;;;24.00;49.20;;;;;;5053466;28;20927;-76
2023/06/06 11:30:14;;;;;;;;;;;24.00;49.20;;;;;;5043572;28;20065;-77
2023/06/06 11:32:41;;;;;;;;;;;24.10;49.20;;;;;;5057549;28;19929;-77
2023/06/06 11:35:09;;;;;;;;;;;24.20;49.10;;;;;;5048265;28;19929;-77
2023/06/06 11:37:36;;;;;;;;;;;24.20;48.90;;;;;;5051415;28;20731;-77
2023/06/06 11:40:08;;;;;;;;;;;24.30;48.90;;;;;;5047701;28;19929;-77
2023/06/06 11:42:34;;;;;;;;;;;24.40;48.80;;;;;;5048814;28;19928;-76
2023/06/06 11:45:04;;;;;;;;;;;24.40;48.80;;;;;;5047579;28;20694;-75
2023/06/06 11:47:31;;;;;;;;;;;24.50;48.70;;;;;;5050797;28;20402;-77
2023/06/06 11:49:57;;;;;;;;;;;24.50;48.40;;;;;;5045837;28;20356;-76
2023/06/06 11:52:25;;;;;;;;;;;24.60;48.30;;;;;;5047237;28;20403;-77
2023/06/06 11:54:56;;;;;;;;;;;24.70;48.10;;;;;;5048608;28;20410;-77
2023/06/06 11:57:23;;;;;;;;;;;24.70;48.00;;;;;;5050694;28;19929;-77
2023/06/06 11:59:53;;;;;;;;;;;24.70;48.00;;;;;;5049160;28;20588;-76
2023/06/06 12:02:20;;;;;;;;;;;24.80;48.00;;;;;;5047936;28;19932;-76
2023/06/06 12:04:47;;;;;;;;;;;24.90;47.80;;;;;;5048527;28;19940;-77
2023/06/06 12:07:13;;;;;;;;;;;24.90;47.70;;;;;;5048728;28;19967;-77
2023/06/06 12:09:41;;;;;;;;;;;25.00;47.70;;;;;;5042124;28;20665;-77
2023/06/06 12:12:10;;;;;;;;;;;25.00;47.60;;;;;;5052932;28;19997;-77
2023/06/06 12:14:37;;;;;;;;;;;25.10;47.40;;;;;;5048262;28;20342;-77
2023/06/06 12:17:04;;;;;;;;;;;25.10;47.30;;;;;;5047528;28;19932;-77
2023/06/06 12:19:30;;;;;;;;;;;25.10;47.40;;;;;;5048434;28;19928;-77
2023/06/06 12:21:57;;;;;;;;;;;25.10;47.30;;;;;;5047615;28;19940;-77
2023/06/06 12:24:24;;;;;;;;;;;25.10;47.20;;;;;;5048488;28;19932;-77
2023/06/06 12:26:55;;;;;;;;;;;25.10;47.40;;;;;;5048911;28;19932;-77
2023/06/06 12:29:23;;;;;;;;;;;25.10;47.40;;;;;;5045016;28;20737;-76
2023/06/06 12:31:50;;;;;;;;;;;25.10;47.50;;;;;;5047709;28;19929;-77
2023/06/06 12:34:17;;;;;;;;;;;25.10;47.70;;;;;;5047591;28;19940;-77
2023/06/06 12:36:44;;;;;;;;;;;25.00;47.40;;;;;;5045015;28;19937;-76
2023/06/06 12:39:13;;;;;;;;;;;25.00;47.40;;;;;;5043806;28;20614;-76
2023/06/06 12:41:40;;;;;;;;;;;25.00;47.60;;;;;;5048700;28;19933;-77
2023/06/06 12:44:11;;;;;;;;;;;25.00;47.80;;;;;;5048163;28;19929;-78
2023/06/06 12:46:38;;;;;;;;;;;25.00;47.70;;;;;;5048222;28;20303;-77
2023/06/06 12:49:04;;;;;;;;;;;25.00;47.70;;;;;;5051569;28;19933;-77
2023/06/06 12:51:31;;;;;;;;;;;25.00;47.60;;;;;;5047569;28;20137;-75
2023/06/06 12:53:57;;;;;;;;;;;25.10;47.70;;;;;;5045722;28;20475;-77
2023/06/06 12:56:24;;;;;;;;;;;25.00;47.60;;;;;;5049197;28;19933;-77
2023/06/06 12:58:51;;;;;;;;;;;25.10;47.50;;;;;;5053931;28;19932;-77
2023/06/06 13:01:19;;;;;;;;;;;25.10;47.10;;;;;;5049437;28;20035;-77
2023/06/06 13:03:46;;;;;;;;;;;25.20;47.30;;;;;;5051581;28;19982;-77
2023/06/06 13:06:12;;;;;;;;;;;25.30;47.40;;;;;;5061291;28;19934;-77
2023/06/06 13:08:39;;;;;;;;;;;25.30;47.20;;;;;;5055705;28;20027;-76
2023/06/06 13:11:06;;;;;;;;;;;25.40;46.60;;;;;;5048970;28;19929;-76
2023/06/06 13:13:33;;;;;;;;;;;25.50;46.20;;;;;;5050122;28;19935;-78
2023/06/06 13:16:00;;;;;;;;;;;25.60;46.90;;;;;;5047456;28;19929;-76
2023/06/06 13:18:28;;;;;;;;;;;25.70;46.60;;;;;;5044125;28;20790;-77
2023/06/06 13:20:58;;;;;;;;;;;25.80;46.20;;;;;;5053912;28;20295;-77
2023/06/06 13:23:26;;;;;;;;;;;25.80;45.90;;;;;;5051061;28;19939;-77
2023/06/06 13:25:55;;;;;;;;;;;25.90;46.00;;;;;;5057327;28;19935;-77
2023/06/06 13:28:21;;;;;;;;;;;26.00;46.10;;;;;;5057119;28;19928;-77
2023/06/06 13:30:48;;;;;;;;;;;26.00;46.20;;;;;;5036395;28;20440;-77
2023/06/06 13:33:14;;;;;;;;;;;26.00;45.80;;;;;;5048225;28;19932;-77
2023/06/06 13:35:42;;;;;;;;;;;26.10;46.30;;;;;;5046856;28;19936;-77
2023/06/06 13:38:09;;;;;;;;;;;26.00;45.60;;;;;;5044449;28;19935;-76
2023/06/06 13:40:37;;;;;;;;;;;26.10;45.10;;;;;;5053552;28;19932;-78
2023/06/06 13:43:06;;;;;;;;;;;26.10;44.90;;;;;;5045716;28;20316;-78
2023/06/06 13:45:33;;;;;;;;;;;26.30;43.10;;;;;;5067210;28;19963;-77
2023/06/06 13:48:00;;;;;;;;;;;26.30;44.60;;;;;;5063021;28;19951;-78
2023/06/06 13:50:27;;;;;;;;;;;26.30;45.70;;;;;;5065705;28;19928;-78
2023/06/06 13:52:55;;;;;;;;;;;26.20;45.40;;;;;;5055035;28;19938;-78
2023/06/06 13:55:21;;;;;;;;;;;26.20;45.30;;;;;;5068769;28;19938;-80
2023/06/06 13:57:51;;;;;;;;;;;26.10;45.80;;;;;;5057296;28;19928;-78
2023/06/06 14:00:18;;;;;;;;;;;26.10;45.20;;;;;;5063179;28;19994;-78
2023/06/06 14:02:45;;;;;;;;;;;26.10;45.50;;;;;;5056499;28;19928;-78
2023/06/06 14:05:11;;;;;;;;;;;26.10;45.30;;;;;;5066545;28;19928;-78
2023/06/06 14:07:38;;;;;;;;;;;26.10;45.20;;;;;;5060464;28;20031;-78
2023/06/06 14:10:07;;;;;;;;;;;26.20;44.90;;;;;;5067271;28;19928;-78
2023/06/06 14:12:34;;;;;;;;;;;26.30;45.10;;;;;;5067980;28;19929;-79
2023/06/06 14:15:00;;;;;;;;;;;26.30;45.50;;;;;;5063771;28;19928;-78
2023/06/06 14:17:27;;;;;;;;;;;26.30;45.00;;;;;;5065720;28;19928;-78